sensor_id;sensor_type;location;lat;lon;timestamp;pressure;altitude;pressure_sealevel;temperature;humidity
22580;BME280;11456;47.030;15.396;2023-08-08T00:00:27;97722.97;;;12.64;100.00
22580;BME280;11456;47.030;15.396;2023-08-08T00:02:54;97720.16;;;12.90;100.00
22580;BME280;11456;47.030;15.396;2023-08-08T00:05:21;97725.56;;;12.90;100.00
22580;BME280;11456;47.030;15.396;2023-08-08T00:07:48;97726.34;;;12.66;100.00
22580;BME280;11456;47.030;15.396;2023-08-08T00:10:14;97718.09;;;12.67;100.00
22580;BME280;11456;47.030;15.396;2023-08-08T00:12:41;97723.13;;;12.62;100.00
22580;BME280;11456;47.030;15.396;2023-08-08T00:15:08;97731.16;;;12.46;100.00
22580;BME280;11456;47.030;15.396;2023-08-08T00:17:35;97730.78;;;12.33;100.00
22580;BME280;11456;47.030;15.396;2023-08-08T00:20:02;97730.13;;;12.39;100.00
22580;BME280;11456;47.030;15.396;2023-08-08T00:22:29;97722.72;;;12.41;100.00
22580;BME280;11456;47.030;15.396;2023-08-08T00:24:55;97725.63;;;12.56;100.00
22580;BME280;11456;47.030;15.396;2023-08-08T00:27:23;97732.59;;;12.66;100.00
22580;BME280;11456;47.030;15.396;2023-08-08T00:29:50;97723.50;;;12.75;100.00
22580;BME280;11456;47.030;15.396;2023-08-08T00:32:17;97725.13;;;12.52;100.00
22580;BME280;11456;47.030;15.396;2023-08-08T00:34:43;97720.75;;;12.59;100.00
22580;BME280;11456;47.030;15.396;2023-08-08T00:37:10;97712.00;;;12.65;100.00
22580;BME280;11456;47.030;15.396;2023-08-08T00:39:37;97712.41;;;13.03;100.00
22580;BME280;11456;47.030;15.396;2023-08-08T00:42:04;97710.34;;;12.72;100.00
22580;BME280;11456;47.030;15.396;2023-08-08T00:44:31;97704.53;;;12.59;100.00
22580;BME280;11456;47.030;15.396;2023-08-08T00:46:57;97701.09;;;12.41;100.00
22580;BME280;11456;47.030;15.396;2023-08-08T00:49:24;97707.56;;;12.48;100.00
22580;BME280;11456;47.030;15.396;2023-08-08T00:51:51;97712.56;;;12.35;100.00
22580;BME280;11456;47.030;15.396;2023-08-08T00:54:18;97713.22;;;12.29;100.00
22580;BME280;11456;47.030;15.396;2023-08-08T00:56:44;97715.44;;;12.08;100.00
22580;BME280;11456;47.030;15.396;2023-08-08T00:59:11;97723.41;;;11.83;100.00
22580;BME280;11456;47.030;15.396;2023-08-08T01:01:40;97721.34;;;12.11;100.00
22580;BME280;11456;47.030;15.396;2023-08-08T01:04:07;97729.00;;;12.16;100.00
22580;BME280;11456;47.030;15.396;2023-08-08T01:11:52;97720.91;;;12.24;100.00
22580;BME280;11456;47.030;15.396;2023-08-08T01:14:20;97723.56;;;12.08;100.00
22580;BME280;11456;47.030;15.396;2023-08-08T01:16:48;97728.25;;;11.62;100.00
22580;BME280;11456;47.030;15.396;2023-08-08T01:19:20;97725.06;;;11.84;100.00
22580;BME280;11456;47.030;15.396;2023-08-08T01:21:53;97738.19;;;11.79;100.00
22580;BME280;11456;47.030;15.396;2023-08-08T01:24:22;97735.78;;;11.94;100.00
22580;BME280;11456;47.030;15.396;2023-08-08T01:26:49;97727.94;;;12.09;100.00
22580;BME280;11456;47.030;15.396;2023-08-08T01:29:16;97726.75;;;12.03;100.00
22580;BME280;11456;47.030;15.396;2023-08-08T01:31:43;97735.56;;;11.87;100.00
22580;BME280;11456;47.030;15.396;2023-08-08T01:34:10;97730.63;;;11.65;100.00
22580;BME280;11456;47.030;15.396;2023-08-08T01:36:58;97731.94;;;11.79;100.00
22580;BME280;11456;47.030;15.396;2023-08-08T01:39:27;97734.28;;;11.56;100.00
22580;BME280;11456;47.030;15.396;2023-08-08T01:41:59;97729.25;;;11.61;100.00
22580;BME280;11456;47.030;15.396;2023-08-08T01:44:28;97732.47;;;11.39;100.00
22580;BME280;11456;47.030;15.396;2023-08-08T01:46:56;97734.00;;;11.41;100.00
22580;BME280;11456;47.030;15.396;2023-08-08T01:49:22;97730.28;;;11.42;100.00
22580;BME280;11456;47.030;15.396;2023-08-08T01:51:49;97731.44;;;11.40;100.00
22580;BME280;11456;47.030;15.396;2023-08-08T01:54:17;97732.00;;;11.43;100.00
22580;BME280;11456;47.030;15.396;2023-08-08T01:56:44;97734.75;;;11.34;100.00
22580;BME280;11456;47.030;15.396;2023-08-08T01:59:11;97730.59;;;11.21;100.00
22580;BME280;11456;47.030;15.396;2023-08-08T02:01:41;97740.88;;;11.00;100.00
22580;BME280;11456;47.030;15.396;2023-08-08T02:04:08;97740.25;;;11.06;100.00
22580;BME280;11456;47.030;15.396;2023-08-08T02:06:35;97740.16;;;11.16;100.00
22580;BME280;11456;47.030;15.396;2023-08-08T02:09:01;97733.75;;;11.35;100.00
22580;BME280;11456;47.030;15.396;2023-08-08T02:11:28;97740.41;;;11.22;100.00
22580;BME280;11456;47.030;15.396;2023-08-08T02:13:55;97737.00;;;11.20;100.00
22580;BME280;11456;47.030;15.396;2023-08-08T02:16:21;97741.63;;;11.10;100.00
22580;BME280;11456;47.030;15.396;2023-08-08T02:18:48;97746.69;;;10.96;100.00
22580;BME280;11456;47.030;15.396;2023-08-08T02:21:15;97755.91;;;10.75;100.00
22580;BME280;11456;47.030;15.396;2023-08-08T02:23:41;97741.00;;;10.81;100.00
22580;BME280;11456;47.030;15.396;2023-08-08T02:26:08;97743.00;;;11.14;100.00
22580;BME280;11456;47.030;15.396;2023-08-08T02:28:35;97750.03;;;11.07;100.00
22580;BME280;11456;47.030;15.396;2023-08-08T02:31:02;97753.16;;;10.85;100.00
22580;BME280;11456;47.030;15.396;2023-08-08T02:33:28;97749.59;;;10.67;100.00
22580;BME280;11456;47.030;15.396;2023-08-08T02:35:55;97750.97;;;10.71;100.00
22580;BME280;11456;47.030;15.396;2023-08-08T02:38:22;97758.16;;;10.80;100.00
22580;BME280;11456;47.030;15.396;2023-08-08T02:40:49;97756.75;;;10.76;100.00
22580;BME280;11456;47.030;15.396;2023-08-08T02:43:16;97755.84;;;10.85;100.00
22580;BME280;11456;47.030;15.396;2023-08-08T02:45:43;97755.84;;;10.85;100.00
22580;BME280;11456;47.030;15.396;2023-08-08T02:48:10;97744.91;;;10.69;100.00
22580;BME280;11456;47.030;15.396;2023-08-08T02:50:37;97739.31;;;10.80;100.00
22580;BME280;11456;47.030;15.396;2023-08-08T02:53:04;97738.81;;;10.67;100.00
22580;BME280;11456;47.030;15.396;2023-08-08T02:55:36;97745.66;;;10.61;100.00
22580;BME280;11456;47.030;15.396;2023-08-08T02:58:04;97755.50;;;10.70;100.00
22580;BME280;11456;47.030;15.396;2023-08-08T03:00:31;97750.94;;;10.80;100.00
22580;BME280;11456;47.030;15.396;2023-08-08T03:02:59;97750.38;;;10.77;100.00
22580;BME280;11456;47.030;15.396;2023-08-08T03:05:26;97757.44;;;10.78;100.00
22580;BME280;11456;47.030;15.396;2023-08-08T03:07:53;97767.00;;;10.90;100.00
22580;BME280;11456;47.030;15.396;2023-08-08T03:10:19;97771.38;;;10.73;100.00
22580;BME280;11456;47.030;15.396;2023-08-08T03:12:47;97773.94;;;10.75;100.00
22580;BME280;11456;47.030;15.396;2023-08-08T03:15:14;97762.06;;;10.68;100.00
22580;BME280;11456;47.030;15.396;2023-08-08T03:17:42;97764.22;;;10.82;100.00
22580;BME280;11456;47.030;15.396;2023-08-08T03:20:10;97778.81;;;10.62;100.00
22580;BME280;11456;47.030;15.396;2023-08-08T03:22:38;97774.31;;;10.53;100.00
22580;BME280;11456;47.030;15.396;2023-08-08T03:25:06;97773.72;;;10.59;100.00
22580;BME280;11456;47.030;15.396;2023-08-08T03:27:33;97770.97;;;10.41;100.00
22580;BME280;11456;47.030;15.396;2023-08-08T03:30:00;97764.44;;;10.43;100.00
22580;BME280;11456;47.030;15.396;2023-08-08T03:32:32;97775.25;;;10.34;100.00
22580;BME280;11456;47.030;15.396;2023-08-08T03:34:59;97775.63;;;10.49;100.00
22580;BME280;11456;47.030;15.396;2023-08-08T03:37:26;97776.00;;;10.26;100.00
22580;BME280;11456;47.030;15.396;2023-08-08T03:39:53;97766.69;;;10.48;100.00
22580;BME280;11456;47.030;15.396;2023-08-08T03:42:19;97764.34;;;10.63;100.00
22580;BME280;11456;47.030;15.396;2023-08-08T03:44:46;97757.94;;;10.64;100.00
22580;BME280;11456;47.030;15.396;2023-08-08T03:47:13;97767.81;;;10.55;100.00
22580;BME280;11456;47.030;15.396;2023-08-08T03:49:46;97771.22;;;10.48;100.00
22580;BME280;11456;47.030;15.396;2023-08-08T03:52:13;97765.53;;;10.51;100.00
22580;BME280;11456;47.030;15.396;2023-08-08T03:54:41;97769.41;;;10.38;100.00
22580;BME280;11456;47.030;15.396;2023-08-08T03:57:08;97775.28;;;10.24;100.00
22580;BME280;11456;47.030;15.396;2023-08-08T03:59:34;97775.78;;;10.37;100.00
22580;BME280;11456;47.030;15.396;2023-08-08T04:02:01;97779.00;;;10.23;100.00
22580;BME280;11456;47.030;15.396;2023-08-08T04:04:28;97778.06;;;10.42;100.00
22580;BME280;11456;47.030;15.396;2023-08-08T04:06:55;97777.75;;;10.18;100.00
22580;BME280;11456;47.030;15.396;2023-08-08T04:09:21;97783.69;;;10.49;100.00
22580;BME280;11456;47.030;15.396;2023-08-08T04:11:48;97778.28;;;10.76;100.00
22580;BME280;11456;47.030;15.396;2023-08-08T04:14:16;97794.66;;;10.65;100.00
22580;BME280;11456;47.030;15.396;2023-08-08T04:16:42;97792.38;;;10.42;100.00
22580;BME280;11456;47.030;15.396;2023-08-08T04:19:09;97789.75;;;10.51;100.00
22580;BME280;11456;47.030;15.396;2023-08-08T04:21:36;97799.50;;;10.61;100.00
22580;BME280;11456;47.030;15.396;2023-08-08T04:24:02;97797.25;;;10.84;100.00
22580;BME280;11456;47.030;15.396;2023-08-08T04:26:29;97805.66;;;10.81;100.00
22580;BME280;11456;47.030;15.396;2023-08-08T04:28:56;97807.81;;;10.95;100.00
22580;BME280;11456;47.030;15.396;2023-08-08T04:31:23;97810.13;;;10.90;100.00
22580;BME280;11456;47.030;15.396;2023-08-08T04:33:52;97814.13;;;10.86;100.00
22580;BME280;11456;47.030;15.396;2023-08-08T04:36:27;97808.88;;;11.12;100.00
22580;BME280;11456;47.030;15.396;2023-08-08T04:38:54;97813.28;;;11.31;100.00
22580;BME280;11456;47.030;15.396;2023-08-08T04:41:21;97815.34;;;11.37;100.00
22580;BME280;11456;47.030;15.396;2023-08-08T04:43:47;97813.13;;;11.50;100.00
22580;BME280;11456;47.030;15.396;2023-08-08T04:46:14;97807.72;;;11.50;100.00
22580;BME280;11456;47.030;15.396;2023-08-08T04:48:41;97804.03;;;11.51;100.00
22580;BME280;11456;47.030;15.396;2023-08-08T04:51:08;97815.06;;;11.57;100.00
22580;BME280;11456;47.030;15.396;2023-08-08T04:53:35;97807.88;;;11.66;100.00
22580;BME280;11456;47.030;15.396;2023-08-08T04:56:01;97815.81;;;11.68;100.00
22580;BME280;11456;47.030;15.396;2023-08-08T04:58:28;97816.81;;;11.84;100.00
22580;BME280;11456;47.030;15.396;2023-08-08T05:00:55;97827.91;;;11.99;100.00
22580;BME280;11456;47.030;15.396;2023-08-08T05:03:21;97830.63;;;12.25;100.00
22580;BME280;11456;47.030;15.396;2023-08-08T05:05:48;97832.63;;;12.23;100.00
22580;BME280;11456;47.030;15.396;2023-08-08T05:08:15;97830.97;;;12.48;100.00
22580;BME280;11456;47.030;15.396;2023-08-08T05:10:42;97828.50;;;12.62;100.00
22580;BME280;11456;47.030;15.396;2023-08-08T05:13:09;97834.00;;;12.78;100.00
22580;BME280;11456;47.030;15.396;2023-08-08T05:15:37;97834.59;;;12.98;100.00
22580;BME280;11456;47.030;15.396;2023-08-08T05:18:04;97841.13;;;13.21;100.00
22580;BME280;11456;47.030;15.396;2023-08-08T05:20:31;97841.31;;;13.28;100.00
22580;BME280;11456;47.030;15.396;2023-08-08T05:22:57;97845.41;;;13.48;100.00
22580;BME280;11456;47.030;15.396;2023-08-08T05:25:24;97841.59;;;13.99;100.00
22580;BME280;11456;47.030;15.396;2023-08-08T05:27:51;97841.38;;;13.77;100.00
22580;BME280;11456;47.030;15.396;2023-08-08T05:30:17;97838.97;;;13.41;100.00
22580;BME280;11456;47.030;15.396;2023-08-08T05:32:44;97841.72;;;13.74;100.00
22580;BME280;11456;47.030;15.396;2023-08-08T05:35:11;97839.72;;;14.08;100.00
22580;BME280;11456;47.030;15.396;2023-08-08T05:37:37;97851.38;;;14.57;100.00
22580;BME280;11456;47.030;15.396;2023-08-08T05:40:05;97855.94;;;14.65;100.00
22580;BME280;11456;47.030;15.396;2023-08-08T05:42:33;97857.19;;;14.93;100.00
22580;BME280;11456;47.030;15.396;2023-08-08T05:45:00;97854.25;;;15.11;100.00
22580;BME280;11456;47.030;15.396;2023-08-08T05:47:26;97853.81;;;15.30;95.45
22580;BME280;11456;47.030;15.396;2023-08-08T05:49:53;97857.31;;;16.00;92.09
22580;BME280;11456;47.030;15.396;2023-08-08T05:52:20;97847.41;;;16.08;88.01
22580;BME280;11456;47.030;15.396;2023-08-08T05:54:48;97851.34;;;15.12;95.56
22580;BME280;11456;47.030;15.396;2023-08-08T05:57:15;97847.56;;;15.30;96.66
22580;BME280;11456;47.030;15.396;2023-08-08T05:59:41;97845.00;;;15.67;96.20
22580;BME280;11456;47.030;15.396;2023-08-08T06:02:11;97847.91;;;15.88;92.73
22580;BME280;11456;47.030;15.396;2023-08-08T06:04:37;97848.63;;;15.82;94.35
22580;BME280;11456;47.030;15.396;2023-08-08T06:07:04;97843.81;;;15.92;92.37
22580;BME280;11456;47.030;15.396;2023-08-08T06:09:36;97841.50;;;16.79;88.06
22580;BME280;11456;47.030;15.396;2023-08-08T06:12:04;97847.63;;;16.43;85.55
22580;BME280;11456;47.030;15.396;2023-08-08T06:14:31;97841.13;;;16.30;82.09
22580;BME280;11456;47.030;15.396;2023-08-08T06:16:57;97844.09;;;16.72;84.19
22580;BME280;11456;47.030;15.396;2023-08-08T06:19:24;97845.06;;;16.94;82.39
22580;BME280;11456;47.030;15.396;2023-08-08T06:21:51;97847.31;;;17.05;84.23
22580;BME280;11456;47.030;15.396;2023-08-08T06:24:17;97843.16;;;17.75;82.04
22580;BME280;11456;47.030;15.396;2023-08-08T06:26:44;97842.78;;;18.41;76.05
22580;BME280;11456;47.030;15.396;2023-08-08T06:29:11;97843.91;;;18.05;75.33
22580;BME280;11456;47.030;15.396;2023-08-08T06:31:40;97839.31;;;17.04;78.36
22580;BME280;11456;47.030;15.396;2023-08-08T06:34:08;97834.91;;;17.17;77.27
22580;BME280;11456;47.030;15.396;2023-08-08T06:36:34;97840.53;;;17.31;82.45
22580;BME280;11456;47.030;15.396;2023-08-08T06:39:01;97848.13;;;17.35;79.99
22580;BME280;11456;47.030;15.396;2023-08-08T06:41:27;97844.25;;;18.16;75.83
22580;BME280;11456;47.030;15.396;2023-08-08T06:43:54;97833.75;;;18.41;73.09
22580;BME280;11456;47.030;15.396;2023-08-08T06:46:21;97845.63;;;18.55;74.73
22580;BME280;11456;47.030;15.396;2023-08-08T06:48:48;97843.91;;;18.54;73.76
22580;BME280;11456;47.030;15.396;2023-08-08T06:51:15;97843.66;;;18.70;71.01
22580;BME280;11456;47.030;15.396;2023-08-08T06:53:42;97853.50;;;18.99;76.30
22580;BME280;11456;47.030;15.396;2023-08-08T06:56:08;97850.09;;;18.90;71.24
22580;BME280;11456;47.030;15.396;2023-08-08T06:58:35;97854.97;;;18.67;73.44
22580;BME280;11456;47.030;15.396;2023-08-08T07:01:02;97866.16;;;20.01;65.09
22580;BME280;11456;47.030;15.396;2023-08-08T07:03:29;97853.09;;;20.03;64.31
22580;BME280;11456;47.030;15.396;2023-08-08T07:05:56;97863.44;;;19.47;65.89
22580;BME280;11456;47.030;15.396;2023-08-08T07:08:22;97864.94;;;18.81;65.61
22580;BME280;11456;47.030;15.396;2023-08-08T07:10:50;97854.88;;;19.57;63.16
22580;BME280;11456;47.030;15.396;2023-08-08T07:13:18;97852.31;;;20.23;58.42
22580;BME280;11456;47.030;15.396;2023-08-08T07:15:45;97845.22;;;20.55;58.94
22580;BME280;11456;47.030;15.396;2023-08-08T07:18:11;97848.56;;;20.76;57.78
22580;BME280;11456;47.030;15.396;2023-08-08T07:20:38;97839.13;;;20.53;59.48
22580;BME280;11456;47.030;15.396;2023-08-08T07:23:05;97842.47;;;21.58;55.58
22580;BME280;11456;47.030;15.396;2023-08-08T07:25:32;97841.41;;;20.62;58.49
22580;BME280;11456;47.030;15.396;2023-08-08T07:27:59;97836.56;;;21.62;52.70
22580;BME280;11456;47.030;15.396;2023-08-08T07:30:26;97829.50;;;21.34;54.01
22580;BME280;11456;47.030;15.396;2023-08-08T07:32:52;97837.00;;;21.52;51.92
22580;BME280;11456;47.030;15.396;2023-08-08T07:35:19;97833.63;;;20.86;56.57
22580;BME280;11456;47.030;15.396;2023-08-08T07:37:46;97829.94;;;21.31;51.71
22580;BME280;11456;47.030;15.396;2023-08-08T07:40:17;97827.94;;;20.28;55.96
22580;BME280;11456;47.030;15.396;2023-08-08T07:42:48;97828.16;;;20.33;54.19
22580;BME280;11456;47.030;15.396;2023-08-08T07:45:15;97822.44;;;20.80;54.40
22580;BME280;11456;47.030;15.396;2023-08-08T07:47:42;97821.41;;;21.52;51.55
22580;BME280;11456;47.030;15.396;2023-08-08T07:50:09;97823.31;;;21.90;50.02
22580;BME280;11456;47.030;15.396;2023-08-08T07:52:37;97818.69;;;21.97;47.70
22580;BME280;11456;47.030;15.396;2023-08-08T07:55:04;97818.69;;;21.97;47.43
22580;BME280;11456;47.030;15.396;2023-08-08T07:57:32;97818.78;;;21.26;49.61
22580;BME280;11456;47.030;15.396;2023-08-08T08:00:04;97814.75;;;21.35;51.80
22580;BME280;11456;47.030;15.396;2023-08-08T08:02:42;97805.81;;;21.91;50.28
22580;BME280;11456;47.030;15.396;2023-08-08T08:05:09;97817.31;;;22.13;47.16
22580;BME280;11456;47.030;15.396;2023-08-08T08:07:36;97811.16;;;22.67;43.65
22580;BME280;11456;47.030;15.396;2023-08-08T08:10:05;97806.56;;;22.86;43.63
22580;BME280;11456;47.030;15.396;2023-08-08T08:12:33;97807.09;;;22.26;43.30
22580;BME280;11456;47.030;15.396;2023-08-08T08:14:59;97796.91;;;22.33;44.51
22580;BME280;11456;47.030;15.396;2023-08-08T08:17:26;97792.47;;;22.82;41.20
22580;BME280;11456;47.030;15.396;2023-08-08T08:19:54;97797.16;;;22.01;43.61
22580;BME280;11456;47.030;15.396;2023-08-08T08:22:21;97797.97;;;22.57;41.58
22580;BME280;11456;47.030;15.396;2023-08-08T08:24:48;97800.34;;;22.22;42.79
22580;BME280;11456;47.030;15.396;2023-08-08T08:27:14;97796.16;;;22.94;40.44
22580;BME280;11456;47.030;15.396;2023-08-08T08:29:41;97796.47;;;23.23;40.94
22580;BME280;11456;47.030;15.396;2023-08-08T08:32:08;97796.44;;;22.86;39.66
22580;BME280;11456;47.030;15.396;2023-08-08T08:34:35;97789.97;;;22.99;41.52
22580;BME280;11456;47.030;15.396;2023-08-08T08:37:02;97799.59;;;22.65;41.14
22580;BME280;11456;47.030;15.396;2023-08-08T08:39:28;97784.63;;;22.11;41.03
22580;BME280;11456;47.030;15.396;2023-08-08T08:41:59;97785.81;;;22.47;40.81
22580;BME280;11456;47.030;15.396;2023-08-08T08:44:31;97789.75;;;23.18;42.33
22580;BME280;11456;47.030;15.396;2023-08-08T08:47:01;97789.28;;;22.85;39.99
22580;BME280;11456;47.030;15.396;2023-08-08T08:49:30;97787.91;;;22.94;40.46
22580;BME280;11456;47.030;15.396;2023-08-08T08:51:58;97779.09;;;24.07;38.88
22580;BME280;11456;47.030;15.396;2023-08-08T08:54:28;97778.88;;;23.78;37.47
22580;BME280;11456;47.030;15.396;2023-08-08T08:56:57;97778.00;;;23.48;33.26
22580;BME280;11456;47.030;15.396;2023-08-08T08:59:24;97777.19;;;23.77;36.48
22580;BME280;11456;47.030;15.396;2023-08-08T09:01:51;97770.69;;;24.43;38.74
22580;BME280;11456;47.030;15.396;2023-08-08T09:04:20;97774.16;;;24.09;35.86
22580;BME280;11456;47.030;15.396;2023-08-08T09:06:48;97773.22;;;24.45;35.00
22580;BME280;11456;47.030;15.396;2023-08-08T09:09:15;97767.94;;;24.02;35.62
22580;BME280;11456;47.030;15.396;2023-08-08T09:11:45;97769.72;;;23.66;37.17
22580;BME280;11456;47.030;15.396;2023-08-08T09:14:19;97764.56;;;24.29;36.74
22580;BME280;11456;47.030;15.396;2023-08-08T09:16:47;97763.28;;;25.02;36.78
22580;BME280;11456;47.030;15.396;2023-08-08T09:19:15;97766.13;;;25.19;36.89
22580;BME280;11456;47.030;15.396;2023-08-08T09:21:42;97762.28;;;25.31;37.69
22580;BME280;11456;47.030;15.396;2023-08-08T09:24:08;97757.88;;;24.72;37.33
22580;BME280;11456;47.030;15.396;2023-08-08T09:26:35;97757.75;;;24.55;35.98
22580;BME280;11456;47.030;15.396;2023-08-08T09:29:03;97753.97;;;24.15;35.86
22580;BME280;11456;47.030;15.396;2023-08-08T09:31:30;97743.63;;;24.40;34.89
22580;BME280;11456;47.030;15.396;2023-08-08T09:34:01;97748.09;;;24.00;37.50
22580;BME280;11456;47.030;15.396;2023-08-08T09:36:28;97755.88;;;24.14;34.82
22580;BME280;11456;47.030;15.396;2023-08-08T09:38:58;97751.16;;;23.91;33.68
22580;BME280;11456;47.030;15.396;2023-08-08T09:41:25;97747.56;;;23.43;34.80
22580;BME280;11456;47.030;15.396;2023-08-08T09:43:53;97752.03;;;23.26;35.40
22580;BME280;11456;47.030;15.396;2023-08-08T09:46:21;97745.03;;;23.78;35.62
22580;BME280;11456;47.030;15.396;2023-08-08T09:48:50;97730.84;;;23.92;32.47
22580;BME280;11456;47.030;15.396;2023-08-08T09:51:16;97738.13;;;23.87;33.91
22580;BME280;11456;47.030;15.396;2023-08-08T09:53:43;97727.72;;;24.30;33.91
22580;BME280;11456;47.030;15.396;2023-08-08T09:56:12;97732.88;;;24.39;34.62
22580;BME280;11456;47.030;15.396;2023-08-08T09:58:42;97735.50;;;24.57;33.37
22580;BME280;11456;47.030;15.396;2023-08-08T10:01:10;97727.22;;;25.43;31.22
22580;BME280;11456;47.030;15.396;2023-08-08T10:03:40;97725.19;;;25.79;30.75
22580;BME280;11456;47.030;15.396;2023-08-08T10:06:10;97729.38;;;25.81;30.79
22580;BME280;11456;47.030;15.396;2023-08-08T10:08:37;97715.47;;;26.05;29.73
22580;BME280;11456;47.030;15.396;2023-08-08T10:11:05;97729.03;;;25.78;30.18
22580;BME280;11456;47.030;15.396;2023-08-08T10:13:35;97721.38;;;26.13;29.24
22580;BME280;11456;47.030;15.396;2023-08-08T10:16:08;97717.03;;;25.04;31.53
22580;BME280;11456;47.030;15.396;2023-08-08T10:18:35;97718.56;;;26.75;30.89
22580;BME280;11456;47.030;15.396;2023-08-08T10:21:04;97699.44;;;27.34;30.31
22580;BME280;11456;47.030;15.396;2023-08-08T10:23:37;97704.75;;;27.13;30.06
22580;BME280;11456;47.030;15.396;2023-08-08T10:26:05;97705.47;;;26.87;28.32
22580;BME280;11456;47.030;15.396;2023-08-08T10:28:33;97699.91;;;26.15;30.37
22580;BME280;11456;47.030;15.396;2023-08-08T10:31:01;97702.59;;;25.25;30.97
22580;BME280;11456;47.030;15.396;2023-08-08T10:33:42;97688.50;;;25.10;30.05
22580;BME280;11456;47.030;15.396;2023-08-08T10:36:11;97685.00;;;26.66;29.20
22580;BME280;11456;47.030;15.396;2023-08-08T10:41:11;97678.63;;;27.04;29.26
22580;BME280;11456;47.030;15.396;2023-08-08T10:43:49;97680.13;;;26.57;29.43
22580;BME280;11456;47.030;15.396;2023-08-08T10:46:25;97668.94;;;26.85;28.70
22580;BME280;11456;47.030;15.396;2023-08-08T10:48:54;97671.41;;;26.26;30.18
22580;BME280;11456;47.030;15.396;2023-08-08T10:51:21;97668.22;;;27.11;29.50
22580;BME280;11456;47.030;15.396;2023-08-08T10:53:51;97663.78;;;27.59;27.44
22580;BME280;11456;47.030;15.396;2023-08-08T10:56:19;97656.38;;;27.38;28.81
22580;BME280;11456;47.030;15.396;2023-08-08T10:58:49;97659.69;;;27.40;28.80
22580;BME280;11456;47.030;15.396;2023-08-08T11:01:16;97659.50;;;28.32;27.68
22580;BME280;11456;47.030;15.396;2023-08-08T11:03:45;97654.59;;;28.39;27.35
22580;BME280;11456;47.030;15.396;2023-08-08T11:06:13;97669.00;;;26.68;29.51
22580;BME280;11456;47.030;15.396;2023-08-08T11:08:40;97653.31;;;26.74;30.74
22580;BME280;11456;47.030;15.396;2023-08-08T11:11:07;97653.03;;;26.20;31.93
22580;BME280;11456;47.030;15.396;2023-08-08T11:13:34;97651.53;;;26.46;31.64
22580;BME280;11456;47.030;15.396;2023-08-08T11:16:00;97660.59;;;26.80;31.07
22580;BME280;11456;47.030;15.396;2023-08-08T11:18:30;97643.59;;;26.16;32.21
22580;BME280;11456;47.030;15.396;2023-08-08T11:20:57;97646.63;;;25.25;33.51
22580;BME280;11456;47.030;15.396;2023-08-08T11:23:45;97644.25;;;24.76;34.91
22580;BME280;11456;47.030;15.396;2023-08-08T11:26:12;97643.47;;;25.04;34.53
22580;BME280;11456;47.030;15.396;2023-08-08T11:28:49;97642.22;;;26.69;33.35
22580;BME280;11456;47.030;15.396;2023-08-08T11:31:18;97640.53;;;26.29;32.70
22580;BME280;11456;47.030;15.396;2023-08-08T11:33:47;97633.75;;;26.97;31.65
22580;BME280;11456;47.030;15.396;2023-08-08T11:36:14;97627.03;;;27.90;29.95
22580;BME280;11456;47.030;15.396;2023-08-08T11:38:42;97627.31;;;29.20;29.25
22580;BME280;11456;47.030;15.396;2023-08-08T11:41:13;97627.34;;;27.94;30.94
22580;BME280;11456;47.030;15.396;2023-08-08T11:43:41;97628.56;;;25.45;33.95
22580;BME280;11456;47.030;15.396;2023-08-08T11:46:14;97625.81;;;25.45;33.12
22580;BME280;11456;47.030;15.396;2023-08-08T11:48:41;97626.41;;;25.92;32.96
22580;BME280;11456;47.030;15.396;2023-08-08T11:51:09;97622.59;;;26.15;32.34
22580;BME280;11456;47.030;15.396;2023-08-08T11:53:50;97626.88;;;26.06;32.59
22580;BME280;11456;47.030;15.396;2023-08-08T11:56:20;97625.97;;;26.17;31.62
22580;BME280;11456;47.030;15.396;2023-08-08T11:58:51;97607.38;;;26.68;31.97
22580;BME280;11456;47.030;15.396;2023-08-08T12:01:25;97611.78;;;26.47;31.65
22580;BME280;11456;47.030;15.396;2023-08-08T12:03:53;97599.94;;;27.98;30.20
22580;BME280;11456;47.030;15.396;2023-08-08T12:06:22;97609.28;;;27.06;31.96
22580;BME280;11456;47.030;15.396;2023-08-08T12:08:49;97610.28;;;26.40;32.88
22580;BME280;11456;47.030;15.396;2023-08-08T12:11:16;97606.31;;;25.07;33.53
22580;BME280;11456;47.030;15.396;2023-08-08T12:13:44;97603.47;;;25.02;34.58
22580;BME280;11456;47.030;15.396;2023-08-08T12:16:13;97595.19;;;25.30;34.14
22580;BME280;11456;47.030;15.396;2023-08-08T12:18:43;97589.59;;;26.04;33.36
22580;BME280;11456;47.030;15.396;2023-08-08T12:21:10;97602.28;;;25.88;32.98
22580;BME280;11456;47.030;15.396;2023-08-08T12:23:37;97591.50;;;26.37;33.51
22580;BME280;11456;47.030;15.396;2023-08-08T12:26:05;97585.03;;;25.47;34.77
22580;BME280;11456;47.030;15.396;2023-08-08T12:28:32;97594.25;;;25.70;34.94
22580;BME280;11456;47.030;15.396;2023-08-08T12:30:59;97587.19;;;25.45;35.08
22580;BME280;11456;47.030;15.396;2023-08-08T12:33:26;97591.06;;;25.16;35.64
22580;BME280;11456;47.030;15.396;2023-08-08T12:35:52;97585.16;;;25.24;36.22
22580;BME280;11456;47.030;15.396;2023-08-08T12:38:19;97577.94;;;25.23;35.35
22580;BME280;11456;47.030;15.396;2023-08-08T12:40:46;97580.34;;;26.31;34.51
22580;BME280;11456;47.030;15.396;2023-08-08T12:43:13;97566.94;;;27.54;32.61
22580;BME280;11456;47.030;15.396;2023-08-08T12:45:46;97564.16;;;28.70;30.81
22580;BME280;11456;47.030;15.396;2023-08-08T12:48:14;97564.91;;;27.76;32.65
22580;BME280;11456;47.030;15.396;2023-08-08T12:50:40;97573.00;;;26.37;33.07
22580;BME280;11456;47.030;15.396;2023-08-08T12:53:07;97565.59;;;25.26;35.93
22580;BME280;11456;47.030;15.396;2023-08-08T12:55:34;97562.47;;;26.01;33.00